createdAt,value
2019-03-31T00:01:07.991Z,1013.27
2019-03-31T00:01:58.574Z,1013.32
2019-03-31T00:02:57.570Z,1013.29
2019-03-31T00:03:57.557Z,1013.35
2019-03-31T00:04:57.553Z,1013.29
2019-03-31T00:05:57.536Z,1013.32
2019-03-31T00:06:57.521Z,1013.27
2019-03-31T00:07:57.515Z,1013.27
2019-03-31T00:08:57.503Z,1013.33
2019-03-31T00:09:57.497Z,1013.30
2019-03-31T00:11:00.507Z,1013.28
2019-03-31T00:11:57.467Z,1013.28
2019-03-31T00:12:57.460Z,1013.30
2019-03-31T00:13:57.450Z,1013.30
2019-03-31T00:14:57.447Z,1013.30
2019-03-31T00:15:57.420Z,1013.28
2019-03-31T00:16:57.413Z,1013.28
2019-03-31T00:17:57.402Z,1013.33
2019-03-31T00:18:57.390Z,1013.30
2019-03-31T00:19:57.396Z,1013.34
2019-03-31T00:20:57.365Z,1013.36
2019-03-31T00:21:57.357Z,1013.30
2019-03-31T00:22:57.343Z,1013.34
2019-03-31T00:23:57.337Z,1013.41
2019-03-31T00:24:57.334Z,1013.37
2019-03-31T00:25:57.393Z,1013.34
2019-03-31T00:26:57.298Z,1013.38
2019-03-31T00:27:57.292Z,1013.33
2019-03-31T00:28:57.282Z,1013.31
2019-03-31T00:29:57.279Z,1013.36
2019-03-31T00:30:57.254Z,1013.36
2019-03-31T00:31:57.243Z,1013.34
2019-03-31T00:32:57.234Z,1013.38
2019-03-31T00:33:57.223Z,1013.32
2019-03-31T00:34:57.221Z,1013.34
2019-03-31T00:35:57.205Z,1013.35
2019-03-31T00:36:57.188Z,1013.39
2019-03-31T00:37:57.179Z,1013.36
2019-03-31T00:38:57.169Z,1013.39
2019-03-31T00:39:57.176Z,1013.36
2019-03-31T00:40:57.151Z,1013.37
2019-03-31T00:41:57.134Z,1013.33
2019-03-31T00:42:57.121Z,1013.31
2019-03-31T00:43:57.111Z,1013.34
2019-03-31T00:44:57.112Z,1013.36
2019-03-31T00:45:57.089Z,1013.36
2019-03-31T00:46:57.080Z,1013.40
2019-03-31T00:47:57.066Z,1013.37
2019-03-31T00:48:57.058Z,1013.39
2019-03-31T00:49:57.086Z,1013.39
2019-03-31T00:50:57.033Z,1013.38
2019-03-31T00:51:57.025Z,1013.41
2019-03-31T00:52:57.009Z,1013.36
2019-03-31T00:53:56.998Z,1013.36
2019-03-31T00:54:57.000Z,1013.34
2019-03-31T00:55:56.980Z,1013.38
2019-03-31T00:56:56.963Z,1013.44
2019-03-31T00:57:56.961Z,1013.44
2019-03-31T00:58:56.941Z,1013.42
2019-03-31T00:59:56.940Z,1013.43
2019-03-31T01:00:56.925Z,1013.45
2019-03-31T01:01:56.907Z,1013.47
2019-03-31T01:02:56.899Z,1013.51
2019-03-31T01:03:56.887Z,1013.54
2019-03-31T01:04:56.883Z,1013.49
2019-03-31T01:05:56.864Z,1013.48
2019-03-31T01:06:56.851Z,1013.54
2019-03-31T01:07:56.841Z,1013.53
2019-03-31T01:08:56.833Z,1013.52
2019-03-31T01:09:56.829Z,1013.55
2019-03-31T01:10:56.809Z,1013.56
2019-03-31T01:11:56.802Z,1013.53
2019-03-31T01:12:56.791Z,1013.55
2019-03-31T01:13:56.774Z,1013.56
2019-03-31T01:14:56.771Z,1013.60
2019-03-31T01:15:56.748Z,1013.64
2019-03-31T01:16:56.740Z,1013.66
2019-03-31T01:17:56.727Z,1013.65
2019-03-31T01:18:56.722Z,1013.62
2019-03-31T01:19:56.715Z,1013.62
2019-03-31T01:20:56.709Z,1013.60
2019-03-31T01:21:56.719Z,1013.64
2019-03-31T01:22:56.681Z,1013.61
2019-03-31T01:23:56.664Z,1013.68
2019-03-31T01:24:56.652Z,1013.68
2019-03-31T01:25:56.657Z,1013.66
2019-03-31T01:26:56.630Z,1013.70
2019-03-31T01:27:56.618Z,1013.67
2019-03-31T01:28:56.607Z,1013.73
2019-03-31T01:29:56.599Z,1013.68
2019-03-31T01:30:56.593Z,1013.68
2019-03-31T01:31:56.577Z,1013.77
2019-03-31T01:32:56.564Z,1013.72
2019-03-31T01:33:56.551Z,1013.73
2019-03-31T01:34:56.539Z,1013.76
2019-03-31T01:35:56.604Z,1013.72
2019-03-31T01:36:56.524Z,1013.83
2019-03-31T01:37:56.532Z,1013.83
2019-03-31T01:38:56.497Z,1013.79
2019-03-31T01:39:56.497Z,1013.77
2019-03-31T01:40:56.491Z,1013.82
2019-03-31T01:41:56.469Z,1013.83
2019-03-31T01:42:56.455Z,1013.80
2019-03-31T01:43:56.443Z,1013.77
2019-03-31T01:44:56.429Z,1013.80
2019-03-31T01:45:56.433Z,1013.84
2019-03-31T01:46:56.408Z,1013.78
2019-03-31T01:47:56.412Z,1013.81
2019-03-31T01:48:56.389Z,1013.76
2019-03-31T01:49:56.382Z,1013.77
2019-03-31T01:50:56.375Z,1013.76
2019-03-31T01:51:56.380Z,1013.79
2019-03-31T01:52:56.343Z,1013.82
2019-03-31T01:53:56.341Z,1013.83
2019-03-31T01:54:56.319Z,1013.82
2019-03-31T01:55:56.318Z,1013.82
2019-03-31T01:56:56.310Z,1013.84
2019-03-31T01:57:56.287Z,1013.87
2019-03-31T01:58:56.286Z,1013.87
2019-03-31T01:59:56.272Z,1013.87
2019-03-31T02:00:56.269Z,1013.85
2019-03-31T02:02:03.967Z,1013.92
2019-03-31T02:02:57.235Z,1013.86
2019-03-31T02:03:56.223Z,1013.86
2019-03-31T02:04:56.214Z,1013.89
2019-03-31T02:05:56.212Z,1013.90
2019-03-31T02:06:56.193Z,1013.90
2019-03-31T02:07:56.178Z,1013.94
2019-03-31T02:08:56.173Z,1013.91
2019-03-31T02:09:56.159Z,1013.91
2019-03-31T02:10:56.159Z,1013.92
2019-03-31T02:11:56.132Z,1013.90
2019-03-31T02:12:56.123Z,1013.94
2019-03-31T02:13:56.119Z,1013.95
2019-03-31T02:14:56.097Z,1013.88
2019-03-31T02:15:56.116Z,1013.90
2019-03-31T02:16:56.081Z,1013.90
2019-03-31T02:17:56.064Z,1013.95
2019-03-31T02:18:56.057Z,1013.91
2019-03-31T02:19:56.047Z,1013.84
2019-03-31T02:20:56.070Z,1013.87
2019-03-31T02:21:56.031Z,1013.89
2019-03-31T02:22:56.017Z,1013.78
2019-03-31T02:23:56.003Z,1013.86
2019-03-31T02:24:55.995Z,1013.81
2019-03-31T02:25:55.976Z,1013.85
2019-03-31T02:26:55.987Z,1013.77
2019-03-31T02:27:55.952Z,1013.82
2019-03-31T02:28:55.942Z,1013.76
2019-03-31T02:29:55.936Z,1013.84
2019-03-31T02:30:55.931Z,1013.85
2019-03-31T02:31:55.926Z,1013.85
2019-03-31T02:32:55.897Z,1013.86
2019-03-31T02:33:55.887Z,1013.78
2019-03-31T02:34:55.893Z,1013.83
2019-03-31T02:35:55.877Z,1013.83
2019-03-31T02:36:55.864Z,1013.85
2019-03-31T02:37:55.847Z,1013.82
2019-03-31T02:38:55.855Z,1013.84
2019-03-31T02:39:55.836Z,1013.86
2019-03-31T02:40:55.828Z,1013.86
2019-03-31T02:41:55.830Z,1013.88
2019-03-31T02:42:55.796Z,1013.92
2019-03-31T02:43:55.785Z,1013.87
2019-03-31T02:44:55.769Z,1013.90
2019-03-31T02:45:55.757Z,1013.90
2019-03-31T02:46:55.769Z,1013.82
2019-03-31T02:47:55.738Z,1013.85
2019-03-31T02:48:55.729Z,1013.89
2019-03-31T02:49:55.716Z,1013.91
2019-03-31T02:50:55.705Z,1013.88
2019-03-31T02:51:55.707Z,1013.89
2019-03-31T02:52:55.682Z,1013.89
2019-03-31T02:53:55.675Z,1013.83
2019-03-31T02:54:55.665Z,1013.89
2019-03-31T02:55:55.650Z,1013.91
2019-03-31T02:56:55.652Z,1013.90
2019-03-31T02:57:55.633Z,1014.01
2019-03-31T02:58:55.615Z,1013.98
2019-03-31T02:59:55.605Z,1013.94
2019-03-31T03:00:55.604Z,1013.90
2019-03-31T03:01:55.599Z,1013.91
2019-03-31T03:02:55.574Z,1014.00
2019-03-31T03:03:55.560Z,1014.03
2019-03-31T03:04:55.560Z,1013.93
2019-03-31T03:05:55.538Z,1014.03
2019-03-31T03:06:55.542Z,1014.03
2019-03-31T03:07:55.517Z,1014.06
2019-03-31T03:08:55.518Z,1014.10
2019-03-31T03:09:55.501Z,1013.96
2019-03-31T03:10:55.486Z,1014.02
2019-03-31T03:11:55.486Z,1014.08
2019-03-31T03:12:55.469Z,1014.03
2019-03-31T03:13:55.454Z,1014.01
2019-03-31T03:14:55.445Z,1014.04
2019-03-31T03:15:55.434Z,1014.13
2019-03-31T03:16:55.440Z,1014.13
2019-03-31T03:17:55.416Z,1014.10
2019-03-31T03:18:55.405Z,1014.11
2019-03-31T03:19:55.393Z,1014.15
2019-03-31T03:20:55.377Z,1014.10
2019-03-31T03:21:55.408Z,1014.12
2019-03-31T03:22:55.359Z,1014.17
2019-03-31T03:23:55.351Z,1014.20
2019-03-31T03:24:55.333Z,1014.20
2019-03-31T03:25:56.805Z,1014.16
2019-03-31T03:26:55.315Z,1014.20
2019-03-31T03:27:55.320Z,1014.17
2019-03-31T03:28:55.300Z,1014.17
2019-03-31T03:29:55.284Z,1014.18
2019-03-31T03:30:55.716Z,1014.14
2019-03-31T03:31:55.261Z,1014.12
2019-03-31T03:33:13.363Z,1014.23
2019-03-31T03:33:56.265Z,1014.20
2019-03-31T03:34:55.233Z,1014.20
2019-03-31T03:35:55.223Z,1014.21
2019-03-31T03:36:55.210Z,1014.17
2019-03-31T03:37:55.203Z,1014.22
2019-03-31T03:38:55.180Z,1014.27
2019-03-31T03:39:55.180Z,1014.32
2019-03-31T03:40:55.164Z,1014.28
2019-03-31T03:41:55.154Z,1014.23
2019-03-31T03:42:55.148Z,1014.29
2019-03-31T03:43:59.657Z,1014.27
2019-03-31T03:44:56.121Z,1014.25
2019-03-31T03:45:55.105Z,1014.25
2019-03-31T03:46:55.096Z,1014.25
2019-03-31T03:47:55.093Z,1014.25
2019-03-31T03:48:55.141Z,1014.28
2019-03-31T03:49:55.066Z,1014.25
2019-03-31T03:50:55.068Z,1014.30
2019-03-31T03:51:55.047Z,1014.32
2019-03-31T03:52:55.056Z,1014.31
2019-03-31T03:53:55.021Z,1014.35
2019-03-31T03:54:55.010Z,1014.33
2019-03-31T03:55:55.000Z,1014.41
2019-03-31T03:56:54.991Z,1014.37
2019-03-31T03:57:54.988Z,1014.35
2019-03-31T03:58:54.968Z,1014.36
2019-03-31T03:59:54.959Z,1014.35
2019-03-31T04:00:54.942Z,1014.41
2019-03-31T04:01:54.937Z,1014.39
2019-03-31T04:02:54.931Z,1014.43
2019-03-31T04:03:54.909Z,1014.41
2019-03-31T04:04:54.901Z,1014.42
2019-03-31T04:05:54.890Z,1014.47
2019-03-31T04:06:54.876Z,1014.54
2019-03-31T04:07:54.878Z,1014.55
2019-03-31T04:08:54.860Z,1014.55
2019-03-31T04:09:54.843Z,1014.51
2019-03-31T04:10:54.838Z,1014.53
2019-03-31T04:11:54.821Z,1014.56
2019-03-31T04:12:54.830Z,1014.53
2019-03-31T04:13:54.802Z,1014.57
2019-03-31T04:14:54.790Z,1014.59
2019-03-31T04:15:54.778Z,1014.51
2019-03-31T04:16:54.772Z,1014.56
2019-03-31T04:17:54.820Z,1014.63
2019-03-31T04:18:54.756Z,1014.56
2019-03-31T04:19:54.740Z,1014.62
2019-03-31T04:20:54.725Z,1014.64
2019-03-31T04:21:54.721Z,1014.65
2019-03-31T04:22:54.713Z,1014.60
2019-03-31T04:23:54.699Z,1014.62
2019-03-31T04:24:54.681Z,1014.61
2019-03-31T04:25:54.676Z,1014.62
2019-03-31T04:26:54.657Z,1014.67
2019-03-31T04:27:54.656Z,1014.66
2019-03-31T04:28:54.641Z,1014.67
2019-03-31T04:29:54.629Z,1014.65
2019-03-31T04:30:54.615Z,1014.64
2019-03-31T04:31:54.610Z,1014.64
2019-03-31T04:32:54.604Z,1014.68
2019-03-31T04:33:54.595Z,1014.66
2019-03-31T04:34:54.569Z,1014.72
2019-03-31T04:35:54.558Z,1014.70
2019-03-31T04:36:54.550Z,1014.71
2019-03-31T04:37:54.546Z,1014.69
2019-03-31T04:38:54.526Z,1014.78
2019-03-31T04:39:54.524Z,1014.73
2019-03-31T04:40:54.506Z,1014.73
2019-03-31T04:41:54.505Z,1014.78
2019-03-31T04:42:54.491Z,1014.84
2019-03-31T04:43:54.471Z,1014.75
2019-03-31T04:44:54.458Z,1014.76
2019-03-31T04:45:54.463Z,1014.82
2019-03-31T04:46:54.440Z,1014.88
2019-03-31T04:47:54.437Z,1014.93
2019-03-31T04:48:54.418Z,1014.89
2019-03-31T04:49:54.403Z,1014.89
2019-03-31T04:50:54.393Z,1014.91
2019-03-31T04:51:54.385Z,1014.97
2019-03-31T04:52:54.389Z,1014.96
2019-03-31T04:53:54.365Z,1015.01
2019-03-31T04:54:54.349Z,1015.00
2019-03-31T04:55:54.339Z,1015.01
2019-03-31T04:56:54.337Z,1015.00
2019-03-31T04:57:54.328Z,1015.12
2019-03-31T04:58:54.303Z,1015.08
2019-03-31T04:59:54.294Z,1015.05
2019-03-31T05:00:54.284Z,1015.04
2019-03-31T05:01:54.272Z,1015.11
2019-03-31T05:02:54.276Z,1015.07
2019-03-31T05:04:04.371Z,1015.12
2019-03-31T05:04:55.238Z,1015.15
2019-03-31T05:05:54.231Z,1015.17
2019-03-31T05:06:54.216Z,1015.15
2019-03-31T05:07:54.238Z,1015.19
2019-03-31T05:08:54.194Z,1015.19
2019-03-31T05:09:54.189Z,1015.21
2019-03-31T05:10:54.179Z,1015.32
2019-03-31T05:11:54.160Z,1015.29
2019-03-31T05:12:54.150Z,1015.26
2019-03-31T05:13:54.151Z,1015.26
2019-03-31T05:14:54.129Z,1015.28
2019-03-31T05:15:54.117Z,1015.37
2019-03-31T05:16:54.114Z,1015.37
2019-03-31T05:17:54.097Z,1015.33
2019-03-31T05:18:54.100Z,1015.44
2019-03-31T05:19:54.074Z,1015.42
2019-03-31T05:20:54.066Z,1015.49
2019-03-31T05:21:54.057Z,1015.52
2019-03-31T05:22:54.125Z,1015.54
2019-03-31T05:23:54.039Z,1015.58
2019-03-31T05:24:54.026Z,1015.58
2019-03-31T05:25:54.013Z,1015.60
2019-03-31T05:26:53.999Z,1015.66
2019-03-31T05:27:53.996Z,1015.71
2019-03-31T05:28:53.991Z,1015.66
2019-03-31T05:29:53.965Z,1015.68
2019-03-31T05:30:53.953Z,1015.75
2019-03-31T05:31:53.942Z,1015.75
2019-03-31T05:32:53.932Z,1015.81
2019-03-31T05:33:53.936Z,1015.85
2019-03-31T05:34:53.911Z,1015.87
2019-03-31T05:35:53.900Z,1015.88
2019-03-31T05:36:53.887Z,1015.90
2019-03-31T05:37:53.880Z,1015.91
2019-03-31T05:38:53.877Z,1015.92
2019-03-31T05:39:53.867Z,1015.99
2019-03-31T05:40:53.844Z,1016.02
2019-03-31T05:41:53.834Z,1016.02
2019-03-31T05:42:53.832Z,1016.03
2019-03-31T05:44:05.201Z,1016.14
2019-03-31T05:44:54.801Z,1016.16
2019-03-31T05:45:53.787Z,1016.18
2019-03-31T05:46:53.779Z,1016.16
2019-03-31T05:47:53.766Z,1016.21
2019-03-31T05:48:53.770Z,1016.23
2019-03-31T05:49:53.747Z,1016.24
2019-03-31T05:50:53.740Z,1016.26
2019-03-31T05:51:53.723Z,1016.25
2019-03-31T05:52:53.712Z,1016.31
2019-03-31T05:53:53.712Z,1016.29
2019-03-31T05:54:53.691Z,1016.28
2019-03-31T05:55:53.685Z,1016.28
2019-03-31T05:56:53.668Z,1016.34
2019-03-31T05:57:53.655Z,1016.30
2019-03-31T05:58:53.657Z,1016.39
2019-03-31T05:59:53.635Z,1016.37
2019-03-31T06:00:53.625Z,1016.43
2019-03-31T06:01:53.615Z,1016.39
2019-03-31T06:02:53.601Z,1016.40
2019-03-31T06:03:53.600Z,1016.44
2019-03-31T06:04:53.581Z,1016.50
2019-03-31T06:05:53.570Z,1016.49
2019-03-31T06:06:53.560Z,1016.41
2019-03-31T06:07:53.547Z,1016.46
2019-03-31T06:08:53.549Z,1016.48
2019-03-31T06:09:53.527Z,1016.49
2019-03-31T06:11:02.960Z,1016.49
2019-03-31T06:13:10.047Z,1016.53
2019-03-31T06:14:19.792Z,1016.52
2019-03-31T06:15:19.315Z,1016.55
2019-03-31T06:16:10.019Z,1016.52
2019-03-31T06:17:10.013Z,1016.59
2019-03-31T06:18:10.003Z,1016.57
2019-03-31T06:19:09.989Z,1016.57
2019-03-31T06:20:09.970Z,1016.57
2019-03-31T06:21:09.965Z,1016.60
2019-03-31T06:22:09.950Z,1016.67
2019-03-31T06:23:09.937Z,1016.72
2019-03-31T06:24:10.012Z,1016.60
2019-03-31T06:25:09.919Z,1016.63
2019-03-31T06:26:09.907Z,1016.62
2019-03-31T06:27:09.901Z,1016.65
2019-03-31T06:28:09.891Z,1016.61
2019-03-31T06:29:09.901Z,1016.64
2019-03-31T06:30:19.326Z,1016.66
2019-03-31T06:31:19.377Z,1016.66
2019-03-31T06:32:18.874Z,1016.65
2019-03-31T06:33:18.903Z,1016.68
2019-03-31T06:34:18.435Z,1016.69
2019-03-31T06:35:09.811Z,1016.71
2019-03-31T06:36:09.802Z,1016.77
2019-03-31T06:37:09.794Z,1016.79
2019-03-31T06:38:09.782Z,1016.79
2019-03-31T06:39:09.777Z,1016.84
2019-03-31T06:40:09.771Z,1016.88
2019-03-31T06:41:18.919Z,1016.85
2019-03-31T06:42:09.794Z,1016.90
2019-03-31T06:43:09.728Z,1016.86
2019-03-31T06:44:09.722Z,1016.93
2019-03-31T06:45:09.702Z,1016.99
2019-03-31T06:46:09.696Z,1017.01
2019-03-31T06:47:09.689Z,1016.98
2019-03-31T06:48:09.670Z,1016.97
2019-03-31T06:49:09.671Z,1016.97
2019-03-31T06:50:09.648Z,1016.95
2019-03-31T06:51:09.637Z,1016.92
2019-03-31T06:52:09.627Z,1016.88
2019-03-31T06:53:09.616Z,1016.97
2019-03-31T06:54:09.625Z,1016.96
2019-03-31T06:55:09.597Z,1016.98
2019-03-31T06:56:09.585Z,1017.02
2019-03-31T06:57:09.578Z,1016.96
2019-03-31T06:58:09.560Z,1016.92
2019-03-31T06:59:09.564Z,1016.94
2019-03-31T07:00:09.540Z,1016.90
2019-03-31T07:01:09.538Z,1016.93
2019-03-31T07:02:09.518Z,1016.98
2019-03-31T07:03:09.507Z,1016.96
2019-03-31T07:04:09.505Z,1016.91
2019-03-31T07:05:09.488Z,1016.94
2019-03-31T07:06:09.476Z,1016.94
2019-03-31T07:07:09.469Z,1016.98
2019-03-31T07:08:09.456Z,1016.93
2019-03-31T07:09:09.451Z,1016.94
2019-03-31T07:10:09.433Z,1017.01
2019-03-31T07:11:09.421Z,1016.99
2019-03-31T07:12:09.410Z,1017.00
2019-03-31T07:13:09.417Z,1016.99
2019-03-31T07:14:09.399Z,1017.04
2019-03-31T07:15:09.389Z,1017.01
2019-03-31T07:16:09.370Z,1017.05
2019-03-31T07:17:09.379Z,1017.08
2019-03-31T07:18:09.345Z,1017.07
2019-03-31T07:19:09.346Z,1017.15
2019-03-31T07:20:09.323Z,1017.14
2019-03-31T07:21:09.315Z,1017.20
2019-03-31T07:22:09.303Z,1017.28
2019-03-31T07:23:09.296Z,1017.26
2019-03-31T07:24:09.303Z,1017.25
2019-03-31T07:25:09.269Z,1017.31
2019-03-31T07:26:09.260Z,1017.25
2019-03-31T07:27:09.248Z,1017.28
2019-03-31T07:28:09.248Z,1017.31
2019-03-31T07:29:09.277Z,1017.32
2019-03-31T07:30:09.216Z,1017.36
2019-03-31T07:31:09.205Z,1017.34
2019-03-31T07:32:09.199Z,1017.36
2019-03-31T07:33:09.185Z,1017.33
2019-03-31T07:34:09.174Z,1017.36
2019-03-31T07:35:18.358Z,1017.34
2019-03-31T07:36:10.151Z,1017.32
2019-03-31T07:37:09.140Z,1017.31
2019-03-31T07:38:09.136Z,1017.31
2019-03-31T07:39:09.334Z,1017.32
2019-03-31T07:40:09.341Z,1017.37
2019-03-31T07:41:13.008Z,1017.39
2019-03-31T07:42:09.258Z,1017.41
2019-03-31T07:43:09.207Z,1017.45
2019-03-31T07:44:09.072Z,1017.44
2019-03-31T07:45:09.065Z,1017.44
2019-03-31T07:46:09.044Z,1017.48
2019-03-31T07:47:09.033Z,1017.45
2019-03-31T07:48:09.035Z,1017.52
2019-03-31T07:49:09.015Z,1017.52
2019-03-31T07:50:09.010Z,1017.55
2019-03-31T07:51:08.994Z,1017.57
2019-03-31T07:52:08.980Z,1017.58
2019-03-31T07:53:09.072Z,1017.59
2019-03-31T07:54:08.957Z,1017.60
2019-03-31T07:55:08.959Z,1017.62
2019-03-31T07:56:08.945Z,1017.64
2019-03-31T07:57:08.928Z,1017.71
2019-03-31T07:58:08.916Z,1017.70
2019-03-31T07:59:08.907Z,1017.66
2019-03-31T08:00:08.904Z,1017.72
2019-03-31T08:01:08.890Z,1017.75
2019-03-31T08:02:08.873Z,1017.73
2019-03-31T08:03:08.860Z,1017.76
2019-03-31T08:04:08.874Z,1017.76
2019-03-31T08:05:08.854Z,1017.72
2019-03-31T08:06:08.829Z,1017.74
2019-03-31T08:07:08.822Z,1017.69
2019-03-31T08:08:08.825Z,1017.75
2019-03-31T08:09:08.794Z,1017.75
2019-03-31T08:10:08.803Z,1017.74
2019-03-31T08:11:08.790Z,1017.72
2019-03-31T08:12:08.765Z,1017.75
2019-03-31T08:13:08.753Z,1017.74
2019-03-31T08:14:08.742Z,1017.76
2019-03-31T08:15:08.743Z,1017.75
2019-03-31T08:16:08.719Z,1017.77
2019-03-31T08:17:08.721Z,1017.80
2019-03-31T08:18:08.700Z,1017.88
2019-03-31T08:19:08.690Z,1017.86
2019-03-31T08:20:08.701Z,1017.87
2019-03-31T08:21:08.666Z,1017.90
2019-03-31T08:22:08.656Z,1017.88
2019-03-31T08:23:08.690Z,1017.91
2019-03-31T08:24:08.637Z,1017.95
2019-03-31T08:25:08.635Z,1017.91
2019-03-31T08:26:09.421Z,1017.95
2019-03-31T08:27:08.604Z,1017.90
2019-03-31T08:28:08.590Z,1017.95
2019-03-31T08:29:08.585Z,1018.01
2019-03-31T08:30:08.579Z,1017.99
2019-03-31T08:31:08.557Z,1018.02
2019-03-31T08:32:08.552Z,1018.07
2019-03-31T08:33:08.536Z,1018.00
2019-03-31T08:34:08.525Z,1018.03
2019-03-31T08:35:08.530Z,1017.95
2019-03-31T08:36:08.503Z,1018.02
2019-03-31T08:37:08.494Z,1017.94
2019-03-31T08:38:08.490Z,1018.02
2019-03-31T08:39:08.497Z,1018.01
2019-03-31T08:40:08.470Z,1018.02
2019-03-31T08:41:08.454Z,1018.03
2019-03-31T08:42:08.441Z,1018.07
2019-03-31T08:43:08.429Z,1018.05
2019-03-31T08:44:08.421Z,1018.11
2019-03-31T08:45:08.416Z,1018.16
2019-03-31T08:46:08.397Z,1018.10
2019-03-31T08:47:08.389Z,1018.11
2019-03-31T08:48:08.375Z,1018.14
2019-03-31T08:49:08.365Z,1018.11
2019-03-31T08:50:08.362Z,1018.15
2019-03-31T08:51:08.345Z,1018.18
2019-03-31T08:52:08.331Z,1018.16
2019-03-31T08:53:08.320Z,1018.14
2019-03-31T08:54:08.309Z,1018.18
2019-03-31T08:55:08.320Z,1018.22
2019-03-31T08:56:08.850Z,1018.21
2019-03-31T08:57:08.278Z,1018.24
2019-03-31T08:58:08.282Z,1018.23
2019-03-31T08:59:08.259Z,1018.26
2019-03-31T09:00:08.295Z,1018.24
2019-03-31T09:01:08.241Z,1018.27
2019-03-31T09:02:08.224Z,1018.21
2019-03-31T09:03:08.212Z,1018.26
2019-03-31T09:04:08.209Z,1018.24
2019-03-31T09:05:08.193Z,1018.24
2019-03-31T09:06:08.191Z,1018.29
2019-03-31T09:07:08.170Z,1018.28
2019-03-31T09:08:08.160Z,1018.27
2019-03-31T09:09:08.149Z,1018.31
2019-03-31T09:10:08.142Z,1018.31
2019-03-31T09:11:08.140Z,1018.32
2019-03-31T09:12:08.117Z,1018.35
2019-03-31T09:13:08.107Z,1018.38
2019-03-31T09:14:08.096Z,1018.38
2019-03-31T09:15:08.087Z,1018.42
2019-03-31T09:16:08.086Z,1018.35
2019-03-31T09:17:08.062Z,1018.36
2019-03-31T09:18:08.051Z,1018.34
2019-03-31T09:19:08.041Z,1018.36
2019-03-31T09:20:08.029Z,1018.36
2019-03-31T09:21:08.027Z,1018.41
2019-03-31T09:22:08.007Z,1018.40
2019-03-31T09:23:07.999Z,1018.42
2019-03-31T09:24:08.015Z,1018.41
2019-03-31T09:25:07.983Z,1018.44
2019-03-31T09:26:07.979Z,1018.44
2019-03-31T09:27:07.955Z,1018.44
2019-03-31T09:28:07.973Z,1018.51
2019-03-31T09:29:07.933Z,1018.44
2019-03-31T09:30:07.930Z,1018.52
2019-03-31T09:31:07.924Z,1018.52
2019-03-31T09:32:07.901Z,1018.42
2019-03-31T09:33:07.890Z,1018.56
2019-03-31T09:34:07.882Z,1018.55
2019-03-31T09:35:07.867Z,1018.59
2019-03-31T09:36:16.038Z,1018.58
2019-03-31T09:37:08.844Z,1018.58
2019-03-31T09:38:07.841Z,1018.65
2019-03-31T09:39:07.826Z,1018.63
2019-03-31T09:40:07.814Z,1018.65
2019-03-31T09:41:07.814Z,1018.68
2019-03-31T09:42:07.794Z,1018.60
2019-03-31T09:43:07.785Z,1018.62
2019-03-31T09:44:07.774Z,1018.58
2019-03-31T09:45:07.761Z,1018.61
2019-03-31T09:46:07.804Z,1018.64
2019-03-31T09:47:07.737Z,1018.66
2019-03-31T09:48:07.726Z,1018.66
2019-03-31T09:49:07.717Z,1018.63
2019-03-31T09:50:07.706Z,1018.65
2019-03-31T09:51:07.696Z,1018.65
2019-03-31T09:52:07.696Z,1018.72
2019-03-31T09:53:07.676Z,1018.74
2019-03-31T09:54:07.662Z,1018.78
2019-03-31T09:55:07.651Z,1018.73
2019-03-31T09:56:07.644Z,1018.79
2019-03-31T09:57:07.641Z,1018.79
2019-03-31T09:58:07.621Z,1018.75
2019-03-31T09:59:07.613Z,1018.76
2019-03-31T10:00:07.600Z,1018.72
2019-03-31T10:01:08.119Z,1018.76
2019-03-31T10:02:07.597Z,1018.74
2019-03-31T10:03:07.565Z,1018.78
2019-03-31T10:04:07.555Z,1018.79
2019-03-31T10:05:07.542Z,1018.78
2019-03-31T10:06:10.972Z,1018.75
2019-03-31T10:07:07.539Z,1018.71
2019-03-31T10:08:07.521Z,1018.69
2019-03-31T10:09:07.503Z,1018.74
2019-03-31T10:10:07.491Z,1018.71
2019-03-31T10:11:07.481Z,1018.72
2019-03-31T10:12:07.476Z,1018.70
2019-03-31T10:13:07.466Z,1018.63
2019-03-31T10:14:07.446Z,1018.79
2019-03-31T10:15:07.435Z,1018.79
2019-03-31T10:16:07.424Z,1019.13
2019-03-31T10:17:07.427Z,1019.07
2019-03-31T10:18:07.402Z,1018.84
2019-03-31T10:19:07.391Z,1018.74
2019-03-31T10:20:07.384Z,1018.69
2019-03-31T10:21:07.374Z,1018.75
2019-03-31T10:22:07.396Z,1018.72
2019-03-31T10:23:07.348Z,1018.77
2019-03-31T10:24:07.338Z,1018.72
2019-03-31T10:25:07.327Z,1018.73
2019-03-31T10:26:07.343Z,1018.70
2019-03-31T10:27:07.306Z,1018.73
2019-03-31T10:28:07.308Z,1018.71
2019-03-31T10:29:07.288Z,1018.74
2019-03-31T10:30:07.275Z,1018.74
2019-03-31T10:31:07.265Z,1018.73
2019-03-31T10:32:07.268Z,1018.73
2019-03-31T10:33:07.257Z,1018.74
2019-03-31T10:34:07.232Z,1018.82
2019-03-31T10:35:07.219Z,1018.75
2019-03-31T10:36:07.216Z,1018.75
2019-03-31T10:37:07.197Z,1018.76
2019-03-31T10:38:07.200Z,1018.70
2019-03-31T10:39:07.179Z,1018.71
2019-03-31T10:40:07.170Z,1018.70
2019-03-31T10:41:07.156Z,1018.81
2019-03-31T10:42:07.145Z,1018.74
2019-03-31T10:43:07.144Z,1018.72
2019-03-31T10:44:07.126Z,1018.71
2019-03-31T10:45:07.120Z,1018.76
2019-03-31T10:46:07.171Z,1018.75
2019-03-31T10:47:07.092Z,1018.75
2019-03-31T10:48:19.527Z,1018.79
2019-03-31T10:49:08.068Z,1019.16
2019-03-31T10:50:07.063Z,1019.22
2019-03-31T10:51:07.054Z,1019.27
2019-03-31T10:52:07.043Z,1019.26
2019-03-31T10:53:07.032Z,1019.33
2019-03-31T10:54:07.026Z,1019.37
2019-03-31T10:55:07.005Z,1019.42
2019-03-31T10:56:06.999Z,1019.40
2019-03-31T10:57:06.984Z,1019.46
2019-03-31T10:58:06.974Z,1019.47
2019-03-31T10:59:06.972Z,1019.22
2019-03-31T11:00:06.951Z,1019.50
2019-03-31T11:01:06.940Z,1019.50
2019-03-31T11:02:06.932Z,1019.19
2019-03-31T11:03:06.920Z,1019.11
2019-03-31T11:04:06.936Z,1019.22
2019-03-31T11:05:06.899Z,1018.97
2019-03-31T11:06:06.892Z,1018.96
2019-03-31T11:07:06.877Z,1018.97
2019-03-31T11:08:06.879Z,1018.93
2019-03-31T11:09:06.866Z,1018.98
2019-03-31T11:10:06.848Z,1018.88
2019-03-31T11:11:06.835Z,1018.90
2019-03-31T11:12:06.829Z,1018.98
2019-03-31T11:13:06.816Z,1018.93
2019-03-31T11:14:06.813Z,1018.90
2019-03-31T11:15:06.792Z,1018.91
2019-03-31T11:16:06.783Z,1018.93
2019-03-31T11:17:06.771Z,1018.89
2019-03-31T11:18:06.762Z,1018.92
2019-03-31T11:19:06.794Z,1019.10
2019-03-31T11:20:06.745Z,1019.22
2019-03-31T11:21:06.732Z,1019.39
2019-03-31T11:22:06.719Z,1019.38
2019-03-31T11:23:06.709Z,1019.43
2019-03-31T11:24:06.699Z,1019.45
2019-03-31T11:25:19.950Z,1019.48
2019-03-31T11:26:07.675Z,1019.43
2019-03-31T11:27:06.681Z,1019.44
2019-03-31T11:28:06.659Z,1019.18
2019-03-31T11:29:06.646Z,1019.11
2019-03-31T11:30:06.644Z,1019.09
2019-03-31T11:31:06.630Z,1019.16
2019-03-31T11:32:06.617Z,1019.19
2019-03-31T11:33:07.663Z,1019.36
2019-03-31T11:34:06.594Z,1019.43
2019-03-31T11:35:06.598Z,1019.49
2019-03-31T11:36:06.582Z,1019.05
2019-03-31T11:37:13.269Z,1019.00
2019-03-31T11:38:07.552Z,1018.98
2019-03-31T11:39:06.544Z,1018.97
2019-03-31T11:40:06.552Z,1019.48
2019-03-31T11:41:06.520Z,1019.52
2019-03-31T11:42:06.517Z,1019.50
2019-03-31T11:43:06.508Z,1019.61
2019-03-31T11:44:06.496Z,1019.63
2019-03-31T11:45:06.494Z,1019.64
2019-03-31T11:46:06.471Z,1019.63
2019-03-31T11:47:06.467Z,1019.64
2019-03-31T11:48:06.455Z,1019.72
2019-03-31T11:49:06.443Z,1019.69
2019-03-31T11:50:06.442Z,1019.67
2019-03-31T11:51:06.430Z,1019.66
2019-03-31T11:52:06.414Z,1019.30
2019-03-31T11:53:06.405Z,1019.25
2019-03-31T11:54:06.395Z,1019.32
2019-03-31T11:55:06.413Z,1019.24
2019-03-31T11:56:06.375Z,1019.24
2019-03-31T11:57:06.377Z,1019.21
2019-03-31T11:58:06.372Z,1019.15
2019-03-31T11:59:06.396Z,1019.22
2019-03-31T12:00:06.344Z,1019.29
2019-03-31T12:01:06.327Z,1019.72
2019-03-31T12:02:06.313Z,1019.65
2019-03-31T12:03:06.304Z,1019.69
2019-03-31T12:04:06.302Z,1019.72
2019-03-31T12:05:06.397Z,1019.70
2019-03-31T12:06:06.285Z,1019.74
2019-03-31T12:07:06.266Z,1019.39